createdAt,value
2018-08-10T00:00:27.159Z,17.70
2018-08-10T00:02:31.000Z,17.60
2018-08-10T00:04:34.949Z,17.60
2018-08-10T00:06:38.965Z,17.60
2018-08-10T00:08:44.254Z,17.50
2018-08-10T00:10:48.029Z,17.50
2018-08-10T00:12:51.904Z,17.40
2018-08-10T00:14:55.689Z,17.40
2018-08-10T00:16:59.530Z,17.40
2018-08-10T00:19:04.307Z,17.40
2018-08-10T00:21:08.086Z,17.30
2018-08-10T00:23:11.988Z,17.30
2018-08-10T00:25:17.560Z,17.30
2018-08-10T00:27:21.534Z,17.20
2018-08-10T00:29:25.478Z,17.20
2018-08-10T00:31:29.335Z,17.20
2018-08-10T00:33:33.522Z,17.10
2018-08-10T00:35:37.425Z,17.00
2018-08-10T00:37:43.514Z,17.00
2018-08-10T00:39:53.952Z,17.00
2018-08-10T00:41:57.837Z,16.90
2018-08-10T00:44:01.790Z,16.80
2018-08-10T00:46:05.801Z,16.80
2018-08-10T00:48:09.608Z,16.80
2018-08-10T00:50:14.530Z,16.70
2018-08-10T00:52:18.428Z,16.70
2018-08-10T00:54:23.088Z,16.70
2018-08-10T00:56:26.883Z,16.70
2018-08-10T00:58:30.724Z,16.70
2018-08-10T01:00:34.537Z,16.60
2018-08-10T01:02:38.578Z,16.60
2018-08-10T01:04:42.340Z,16.50
2018-08-10T01:06:47.208Z,16.50
2018-08-10T01:08:51.014Z,16.50
2018-08-10T01:10:54.776Z,16.40
2018-08-10T01:12:58.594Z,16.40
2018-08-10T01:15:02.529Z,16.30
2018-08-10T01:17:06.541Z,16.30
2018-08-10T01:19:10.378Z,16.30
2018-08-10T01:21:14.167Z,16.30
2018-08-10T01:23:17.980Z,16.30
2018-08-10T01:25:23.467Z,16.30
2018-08-10T01:27:32.505Z,16.30
2018-08-10T01:29:36.447Z,16.30
2018-08-10T01:31:40.281Z,16.30
2018-08-10T01:33:44.897Z,16.20
2018-08-10T01:35:48.719Z,16.20
2018-08-10T01:37:52.752Z,16.20
2018-08-10T01:39:56.482Z,16.10
2018-08-10T01:42:00.224Z,16.00
2018-08-10T01:44:04.295Z,16.00
2018-08-10T01:46:08.377Z,16.00
2018-08-10T01:48:12.266Z,16.00
2018-08-10T01:50:16.631Z,16.00
2018-08-10T01:52:26.984Z,16.00
2018-08-10T01:54:30.924Z,16.00
2018-08-10T01:56:34.695Z,15.90
2018-08-10T01:58:38.657Z,15.90
2018-08-10T02:00:42.489Z,15.90
2018-08-10T02:02:46.823Z,15.90
2018-08-10T02:04:51.888Z,15.90
2018-08-10T02:06:55.693Z,15.90
2018-08-10T02:08:59.472Z,15.90
2018-08-10T02:11:03.484Z,15.90
2018-08-10T02:13:08.351Z,15.90
2018-08-10T02:15:14.142Z,15.90
2018-08-10T02:17:17.927Z,15.90
2018-08-10T02:19:21.780Z,15.90
2018-08-10T02:21:25.881Z,15.90
2018-08-10T02:23:31.307Z,15.80
2018-08-10T02:25:35.273Z,15.90
2018-08-10T02:27:41.839Z,15.80
2018-08-10T02:29:45.703Z,15.80
2018-08-10T02:31:49.514Z,15.80
2018-08-10T02:33:53.897Z,15.80
2018-08-10T02:35:57.699Z,15.80
2018-08-10T02:38:01.543Z,15.70
2018-08-10T02:40:07.340Z,15.70
2018-08-10T02:42:11.192Z,15.70
2018-08-10T02:44:15.108Z,15.60
2018-08-10T02:46:18.896Z,15.70
2018-08-10T02:48:22.897Z,15.60
2018-08-10T02:50:26.784Z,15.60
2018-08-10T02:52:30.578Z,15.50
2018-08-10T02:54:34.466Z,15.50
2018-08-10T02:56:38.220Z,15.50
2018-08-10T02:58:42.027Z,15.40
2018-08-10T03:00:45.815Z,15.30
2018-08-10T03:02:49.646Z,15.30
2018-08-10T03:04:53.476Z,15.40
2018-08-10T03:06:57.304Z,15.40
2018-08-10T03:09:01.105Z,15.40
2018-08-10T03:11:04.860Z,15.40
2018-08-10T03:13:08.657Z,15.40
2018-08-10T03:15:14.950Z,15.30
2018-08-10T03:17:18.797Z,15.30
2018-08-10T03:19:23.009Z,15.20
2018-08-10T03:21:26.899Z,15.30
2018-08-10T03:23:30.899Z,15.30
2018-08-10T03:25:34.747Z,15.30
2018-08-10T03:27:38.716Z,15.30
2018-08-10T03:29:42.449Z,15.30
2018-08-10T03:31:46.238Z,15.20
2018-08-10T03:33:50.200Z,15.20
2018-08-10T03:35:54.354Z,15.10
2018-08-10T03:37:58.273Z,15.10
2018-08-10T03:40:03.142Z,15.20
2018-08-10T03:42:06.936Z,15.10
2018-08-10T03:44:10.776Z,15.10
2018-08-10T03:46:14.476Z,15.00
2018-08-10T03:48:18.176Z,15.00
2018-08-10T03:50:21.988Z,15.00
2018-08-10T03:52:25.873Z,14.90
2018-08-10T03:54:29.663Z,14.90
2018-08-10T03:56:34.088Z,14.80
2018-08-10T03:58:37.896Z,14.80
2018-08-10T04:00:41.815Z,14.70
2018-08-10T04:02:45.589Z,14.70
2018-08-10T04:04:49.325Z,14.60
2018-08-10T04:06:53.083Z,14.60
2018-08-10T04:08:56.888Z,14.60
2018-08-10T04:11:00.668Z,14.60
2018-08-10T04:13:04.580Z,14.70
2018-08-10T04:15:10.959Z,14.70
2018-08-10T04:17:29.088Z,14.70
2018-08-10T04:19:32.873Z,14.60
2018-08-10T04:21:36.643Z,14.70
2018-08-10T04:23:40.845Z,14.70
2018-08-10T04:25:44.781Z,14.70
2018-08-10T04:27:48.530Z,14.80
2018-08-10T04:29:52.362Z,14.70
2018-08-10T04:31:56.117Z,14.60
2018-08-10T04:34:00.009Z,14.60
2018-08-10T04:36:04.395Z,14.70
2018-08-10T04:38:08.187Z,14.60
2018-08-10T04:40:12.731Z,14.50
2018-08-10T04:42:16.690Z,14.50
2018-08-10T04:44:20.519Z,14.50
2018-08-10T04:46:24.630Z,14.60
2018-08-10T04:48:28.470Z,14.60
2018-08-10T04:50:33.644Z,14.50
2018-08-10T04:52:37.397Z,14.50
2018-08-10T04:54:41.291Z,14.60
2018-08-10T04:56:45.114Z,14.60
2018-08-10T04:58:49.001Z,14.60
2018-08-10T05:00:52.808Z,14.60
2018-08-10T05:02:56.821Z,14.60
2018-08-10T05:05:00.627Z,14.60
2018-08-10T05:07:04.499Z,14.60
2018-08-10T05:09:10.397Z,14.60
2018-08-10T05:11:14.198Z,14.60
2018-08-10T05:13:17.958Z,14.70
2018-08-10T05:15:21.884Z,14.70
2018-08-10T05:17:25.721Z,14.60
2018-08-10T05:19:29.561Z,14.60
2018-08-10T05:21:33.297Z,14.70
2018-08-10T05:23:37.101Z,14.70
2018-08-10T05:25:40.944Z,14.80
2018-08-10T05:27:44.732Z,14.80
2018-08-10T05:29:48.542Z,14.90
2018-08-10T05:31:52.345Z,14.90
2018-08-10T05:33:56.114Z,15.00
2018-08-10T05:36:00.024Z,15.00
2018-08-10T05:38:03.838Z,15.10
2018-08-10T05:40:08.885Z,15.20
2018-08-10T05:42:12.772Z,15.20
2018-08-10T05:44:16.467Z,15.30
2018-08-10T05:46:20.302Z,15.40
2018-08-10T05:48:24.053Z,15.50
2018-08-10T05:50:34.341Z,15.60
2018-08-10T05:52:38.138Z,15.80
2018-08-10T05:54:41.979Z,15.80
2018-08-10T05:56:45.773Z,15.80
2018-08-10T05:58:49.591Z,16.00
2018-08-10T06:00:53.346Z,16.20
2018-08-10T06:02:57.103Z,16.30
2018-08-10T06:05:00.909Z,16.50
2018-08-10T06:07:04.719Z,16.70
2018-08-10T06:09:11.904Z,16.80
2018-08-10T06:11:15.783Z,16.80
2018-08-10T06:13:19.637Z,16.90
2018-08-10T06:15:56.940Z,17.00
2018-08-10T06:18:00.884Z,17.10
2018-08-10T06:20:05.498Z,17.20
2018-08-10T06:22:09.317Z,17.30
2018-08-10T06:24:13.282Z,17.40
2018-08-10T06:26:17.175Z,17.50
2018-08-10T06:28:21.047Z,17.50
2018-08-10T06:30:24.962Z,17.40
2018-08-10T06:32:28.741Z,17.40
2018-08-10T06:34:32.528Z,17.40
2018-08-10T06:36:36.349Z,17.40
2018-08-10T06:38:40.147Z,17.50
2018-08-10T06:40:44.153Z,17.60
2018-08-10T06:42:47.935Z,17.80
2018-08-10T06:44:52.846Z,17.70
2018-08-10T06:46:56.703Z,17.70
2018-08-10T06:49:00.604Z,17.60
2018-08-10T06:51:04.489Z,17.60
2018-08-10T06:53:08.351Z,17.60
2018-08-10T06:55:12.209Z,17.70
2018-08-10T06:57:16.065Z,17.70
2018-08-10T06:59:19.868Z,17.90
2018-08-10T07:01:23.775Z,17.70
2018-08-10T07:03:27.513Z,17.70
2018-08-10T07:05:31.306Z,17.80
2018-08-10T07:07:35.242Z,18.10
2018-08-10T07:09:38.995Z,18.10
2018-08-10T07:11:42.853Z,18.30
2018-08-10T07:13:46.643Z,18.40
2018-08-10T07:15:50.425Z,18.50
2018-08-10T07:17:54.237Z,18.60
2018-08-10T07:19:58.124Z,18.80
2018-08-10T07:22:02.273Z,18.80
2018-08-10T07:24:06.618Z,18.80
2018-08-10T07:26:10.466Z,18.90
2018-08-10T07:28:14.240Z,18.90
2018-08-10T07:30:18.095Z,18.80
2018-08-10T07:32:21.866Z,18.90
2018-08-10T07:34:25.721Z,19.00
2018-08-10T07:36:29.544Z,19.00
2018-08-10T07:38:33.481Z,19.20
2018-08-10T07:40:37.233Z,19.20
2018-08-10T07:42:41.057Z,19.30
2018-08-10T07:44:44.862Z,19.40
2018-08-10T07:46:50.164Z,19.60
2018-08-10T07:48:54.000Z,19.90
2018-08-10T07:50:57.948Z,19.80
2018-08-10T07:53:01.768Z,19.60
2018-08-10T07:55:05.675Z,19.40
2018-08-10T07:57:09.599Z,19.50
2018-08-10T07:59:13.453Z,19.50
2018-08-10T08:01:17.250Z,19.80
2018-08-10T08:03:21.254Z,20.00
2018-08-10T08:05:25.058Z,20.20
2018-08-10T08:07:29.025Z,20.30
2018-08-10T08:09:32.931Z,19.90
2018-08-10T08:11:36.852Z,19.80
2018-08-10T08:13:40.727Z,19.60
2018-08-10T08:15:44.570Z,19.50
2018-08-10T08:17:48.398Z,19.60
2018-08-10T08:19:52.309Z,19.60
2018-08-10T08:22:15.833Z,19.60
2018-08-10T08:24:19.628Z,19.80
2018-08-10T08:26:23.543Z,20.00
2018-08-10T08:28:29.254Z,20.30
2018-08-10T08:30:33.153Z,20.60
2018-08-10T08:32:37.022Z,20.70
2018-08-10T08:34:41.052Z,20.70
2018-08-10T08:36:44.867Z,20.70
2018-08-10T08:39:28.803Z,20.80
2018-08-10T08:41:32.897Z,20.80
2018-08-10T08:45:54.145Z,20.70
2018-08-10T08:47:58.007Z,20.80
2018-08-10T08:50:04.096Z,21.10
2018-08-10T08:52:07.992Z,21.30
2018-08-10T08:56:26.551Z,21.50
2018-08-10T08:58:31.164Z,21.80
2018-08-10T09:00:35.268Z,22.00
2018-08-10T09:02:39.306Z,21.90
2018-08-10T09:05:14.241Z,21.70
2018-08-10T09:07:18.198Z,21.70
2018-08-10T09:09:34.890Z,21.50
2018-08-10T09:11:38.859Z,21.40
2018-08-10T09:14:52.437Z,21.60
2018-08-10T09:16:56.451Z,22.00
2018-08-10T09:19:00.250Z,22.30
2018-08-10T09:21:04.156Z,22.20
2018-08-10T09:23:08.971Z,22.10
2018-08-10T09:25:14.914Z,21.90
2018-08-10T09:27:18.958Z,21.60
2018-08-10T09:29:22.865Z,21.40
2018-08-10T09:31:26.778Z,21.30
2018-08-10T09:33:30.668Z,21.10
2018-08-10T09:35:34.633Z,21.10
2018-08-10T09:37:38.882Z,21.20
2018-08-10T09:39:42.811Z,21.40
2018-08-10T09:41:46.851Z,21.60
2018-08-10T09:43:50.911Z,21.90
2018-08-10T09:45:54.708Z,22.20
2018-08-10T09:47:58.687Z,22.30
2018-08-10T09:50:02.565Z,22.50
2018-08-10T09:52:06.789Z,22.50
2018-08-10T09:54:11.149Z,22.20
2018-08-10T09:56:15.475Z,22.00
2018-08-10T09:58:20.768Z,22.00
2018-08-10T10:00:30.073Z,22.20
2018-08-10T10:02:35.099Z,22.40
2018-08-10T10:04:39.110Z,22.50
2018-08-10T10:06:43.068Z,22.50
2018-08-10T10:08:47.040Z,22.50
2018-08-10T10:10:51.016Z,22.50
2018-08-10T10:12:55.347Z,22.50
2018-08-10T10:14:59.418Z,22.40
2018-08-10T10:17:03.336Z,22.10
2018-08-10T10:19:16.754Z,22.10
2018-08-10T10:21:23.805Z,22.10
2018-08-10T10:23:28.844Z,22.00
2018-08-10T10:25:32.990Z,21.90
2018-08-10T10:27:36.862Z,21.80
2018-08-10T10:29:41.015Z,21.80
2018-08-10T10:31:45.131Z,21.70
2018-08-10T10:33:49.992Z,21.70
2018-08-10T10:35:54.073Z,21.60
2018-08-10T10:38:05.774Z,21.60
2018-08-10T10:40:10.966Z,21.50
2018-08-10T10:42:14.908Z,21.40
2018-08-10T10:44:18.855Z,21.40
2018-08-10T10:46:22.817Z,21.50
2018-08-10T10:48:26.662Z,21.70
2018-08-10T10:50:30.758Z,22.00
2018-08-10T10:52:34.827Z,22.10
2018-08-10T10:54:38.789Z,22.10
2018-08-10T10:56:42.763Z,22.10
2018-08-10T10:58:49.601Z,22.10
2018-08-10T11:00:53.663Z,22.00
2018-08-10T11:02:57.628Z,21.90
2018-08-10T11:05:01.531Z,21.80
2018-08-10T11:07:05.654Z,21.60
2018-08-10T11:09:09.494Z,21.60
2018-08-10T11:11:13.425Z,21.50
2018-08-10T11:13:17.363Z,21.40
2018-08-10T11:15:21.202Z,21.30
2018-08-10T11:17:25.079Z,21.20
2018-08-10T11:19:28.885Z,21.30
2018-08-10T11:21:32.805Z,21.50
2018-08-10T11:23:36.903Z,21.90
2018-08-10T11:25:40.818Z,22.30
2018-08-10T11:27:45.221Z,22.50
2018-08-10T11:29:50.193Z,22.80
2018-08-10T11:31:55.950Z,23.20
2018-08-10T11:34:00.887Z,23.60
2018-08-10T11:36:04.876Z,23.90
2018-08-10T11:38:08.689Z,24.10
2018-08-10T11:40:14.315Z,24.40
2018-08-10T11:42:18.136Z,24.70
2018-08-10T11:44:22.189Z,24.90
2018-08-10T11:46:26.127Z,25.00
2018-08-10T11:48:30.567Z,25.00
2018-08-10T11:50:34.479Z,25.00
2018-08-10T11:52:38.634Z,25.20
2018-08-10T11:54:42.408Z,25.10
2018-08-10T11:56:46.216Z,25.00
2018-08-10T11:58:50.069Z,25.20
2018-08-10T12:00:55.146Z,25.50
2018-08-10T12:02:58.951Z,25.60
2018-08-10T12:05:02.960Z,25.40
2018-08-10T12:07:06.769Z,25.30
2018-08-10T12:09:12.143Z,25.40
2018-08-10T12:11:16.000Z,25.30
2018-08-10T12:13:19.825Z,25.20
2018-08-10T12:15:23.650Z,25.30
2018-08-10T12:17:27.665Z,25.50
2018-08-10T12:19:31.521Z,25.80
2018-08-10T12:21:35.385Z,25.90
2018-08-10T12:23:39.395Z,26.20
2018-08-10T12:25:43.352Z,26.30
2018-08-10T12:27:47.147Z,26.20
2018-08-10T12:29:51.256Z,26.00
2018-08-10T12:31:55.122Z,25.80
2018-08-10T12:33:59.031Z,25.60
2018-08-10T12:36:02.995Z,25.60
2018-08-10T12:38:06.872Z,25.80
2018-08-10T12:40:10.824Z,26.10
2018-08-10T12:42:16.099Z,26.10
2018-08-10T12:44:19.954Z,26.20
2018-08-10T12:46:23.895Z,25.70
2018-08-10T12:48:27.685Z,25.50
2018-08-10T12:50:31.623Z,25.50
2018-08-10T12:52:35.395Z,25.60
2018-08-10T12:54:39.939Z,25.70
2018-08-10T12:56:44.550Z,25.60
2018-08-10T12:58:48.410Z,25.30
2018-08-10T13:00:54.282Z,25.20
2018-08-10T13:03:00.053Z,25.00
2018-08-10T13:05:03.997Z,25.00
2018-08-10T13:07:07.837Z,25.20
2018-08-10T13:09:15.823Z,25.30
2018-08-10T13:11:19.794Z,25.60
2018-08-10T13:13:24.311Z,25.70
2018-08-10T13:15:31.159Z,25.60
2018-08-10T13:17:35.291Z,25.50
2018-08-10T13:19:39.299Z,25.50
2018-08-10T13:22:00.463Z,25.30
2018-08-10T13:24:05.670Z,25.20
2018-08-10T13:26:09.766Z,25.00
2018-08-10T13:28:13.586Z,25.00
2018-08-10T13:30:18.506Z,25.10
2018-08-10T13:32:22.312Z,25.00
2018-08-10T13:34:26.221Z,24.80
2018-08-10T13:36:30.124Z,24.70
2018-08-10T13:38:33.939Z,24.60
2018-08-10T13:40:37.756Z,24.60
2018-08-10T13:42:41.559Z,24.40
2018-08-10T13:44:45.364Z,24.40
2018-08-10T13:46:49.169Z,24.40
2018-08-10T13:48:52.996Z,24.40
2018-08-10T13:50:56.917Z,24.50
2018-08-10T13:53:00.749Z,24.50
2018-08-10T13:55:04.767Z,24.60
2018-08-10T13:57:08.768Z,24.60
2018-08-10T13:59:12.607Z,24.50
2018-08-10T14:01:16.506Z,24.40
2018-08-10T14:03:20.352Z,24.50
2018-08-10T14:05:25.213Z,24.60
2018-08-10T14:07:29.035Z,24.80
2018-08-10T14:09:32.915Z,25.10
2018-08-10T14:11:36.828Z,25.40
2018-08-10T14:13:40.636Z,25.60
2018-08-10T14:15:44.533Z,25.80
2018-08-10T14:17:48.366Z,25.90
2018-08-10T14:19:52.214Z,25.90
2018-08-10T14:21:56.063Z,26.10
2018-08-10T14:23:59.890Z,26.20
2018-08-10T14:26:03.853Z,26.20
2018-08-10T14:28:07.760Z,26.20
2018-08-10T14:30:16.067Z,26.30
2018-08-10T14:32:19.992Z,26.30
2018-08-10T14:34:23.816Z,26.40
2018-08-10T14:36:27.681Z,26.50
2018-08-10T14:38:31.688Z,26.50
2018-08-10T14:40:35.592Z,26.40
2018-08-10T14:42:39.482Z,26.10
2018-08-10T14:44:43.402Z,25.60
2018-08-10T14:46:47.266Z,25.30
2018-08-10T14:48:51.113Z,25.20
2018-08-10T14:50:55.003Z,25.40
2018-08-10T14:52:58.877Z,25.50
2018-08-10T14:55:02.756Z,25.30
2018-08-10T14:57:07.125Z,25.40
2018-08-10T14:59:10.982Z,25.60
2018-08-10T15:01:14.972Z,25.80
2018-08-10T15:03:18.787Z,26.00
2018-08-10T15:05:22.690Z,26.20
2018-08-10T15:07:26.580Z,26.20
2018-08-10T15:09:30.396Z,26.10
2018-08-10T15:11:34.305Z,25.80
2018-08-10T15:13:38.134Z,25.60
2018-08-10T15:15:42.031Z,25.40
2018-08-10T15:17:46.546Z,25.60
2018-08-10T15:19:50.334Z,25.80
2018-08-10T15:21:54.233Z,26.10
2018-08-10T15:23:58.111Z,26.20
2018-08-10T15:26:01.923Z,26.30
2018-08-10T15:28:05.902Z,26.40
2018-08-10T15:30:13.807Z,26.40
2018-08-10T15:32:17.758Z,26.50
2018-08-10T15:34:21.616Z,26.20
2018-08-10T15:36:25.466Z,26.20
2018-08-10T15:38:29.365Z,26.20
2018-08-10T15:40:33.078Z,26.10
2018-08-10T15:42:37.018Z,26.20
2018-08-10T15:44:40.891Z,26.30
2018-08-10T15:46:44.765Z,26.10
2018-08-10T15:48:48.623Z,26.10
2018-08-10T15:50:52.579Z,26.10
2018-08-10T15:52:57.766Z,25.80
2018-08-10T15:55:01.837Z,25.70
2018-08-10T15:57:05.826Z,25.30
2018-08-10T15:59:10.413Z,25.10
2018-08-10T16:01:14.211Z,24.90
2018-08-10T16:03:18.084Z,24.70
2018-08-10T16:05:22.070Z,24.50
2018-08-10T16:07:26.022Z,24.40
2018-08-10T16:09:29.833Z,24.20
2018-08-10T16:11:33.677Z,24.20
2018-08-10T16:13:37.616Z,24.30
2018-08-10T16:15:41.490Z,24.40
2018-08-10T16:17:45.378Z,24.50
2018-08-10T16:19:49.295Z,24.40
2018-08-10T16:21:53.112Z,24.30
2018-08-10T16:23:57.420Z,24.20
2018-08-10T16:26:01.468Z,24.10
2018-08-10T16:28:05.692Z,24.10
2018-08-10T16:30:11.677Z,24.10
2018-08-10T16:32:15.519Z,24.10
2018-08-10T16:34:19.323Z,24.20
2018-08-10T16:36:23.125Z,24.20
2018-08-10T16:38:27.008Z,24.20
2018-08-10T16:40:31.174Z,24.10
2018-08-10T16:42:35.629Z,23.90
2018-08-10T16:44:39.748Z,23.90
2018-08-10T16:46:43.429Z,23.90
2018-08-10T16:48:47.622Z,23.80
2018-08-10T16:50:51.440Z,23.80
2018-08-10T16:52:55.577Z,23.80
2018-08-10T16:54:59.577Z,23.80
2018-08-10T16:57:03.457Z,23.80
2018-08-10T16:59:08.191Z,23.70
2018-08-10T17:01:12.055Z,23.70
2018-08-10T17:03:16.840Z,23.70
2018-08-10T17:05:20.758Z,23.60
2018-08-10T17:07:24.986Z,23.60
2018-08-10T17:09:28.833Z,23.50
2018-08-10T17:11:33.301Z,23.50
2018-08-10T17:13:37.163Z,23.50
2018-08-10T17:15:41.260Z,23.40
2018-08-10T17:17:46.040Z,23.40
2018-08-10T17:19:51.017Z,23.40
2018-08-10T17:21:55.280Z,23.40
2018-08-10T17:23:59.381Z,23.30
2018-08-10T17:26:03.251Z,23.20
2018-08-10T17:28:07.186Z,23.20
2018-08-10T17:30:13.503Z,23.10
2018-08-10T17:32:18.117Z,23.00
2018-08-10T17:34:22.499Z,23.00
2018-08-10T17:36:26.649Z,22.90
2018-08-10T17:38:30.627Z,22.90
2018-08-10T17:40:36.655Z,22.80
2018-08-10T17:42:43.539Z,22.80
2018-08-10T17:44:51.285Z,22.70
2018-08-10T17:46:57.800Z,22.70
2018-08-10T17:49:08.041Z,22.70
2018-08-10T17:51:17.680Z,22.60
2018-08-10T17:53:22.280Z,22.60
2018-08-10T17:55:27.904Z,22.50
2018-08-10T17:57:31.903Z,22.50
2018-08-10T17:59:35.790Z,22.50
2018-08-10T18:01:39.641Z,22.50
2018-08-10T18:03:52.929Z,22.50
2018-08-10T18:05:56.865Z,22.40
2018-08-10T18:08:02.118Z,22.40
2018-08-10T18:10:06.653Z,22.40
2018-08-10T18:12:10.716Z,22.30
2018-08-10T18:14:14.582Z,22.20
2018-08-10T18:16:18.470Z,22.10
2018-08-10T18:18:22.569Z,22.10
2018-08-10T18:20:26.494Z,22.00
2018-08-10T18:22:30.928Z,22.00
2018-08-10T18:24:35.821Z,22.00
2018-08-10T18:26:39.667Z,21.90
2018-08-10T18:28:43.902Z,21.90
2018-08-10T18:30:48.019Z,21.80
2018-08-10T18:32:51.900Z,21.70
2018-08-10T18:34:55.835Z,21.70
2018-08-10T18:37:19.036Z,21.70
2018-08-10T18:39:24.734Z,21.60
2018-08-10T18:41:29.606Z,21.60
2018-08-10T18:43:33.590Z,21.60
2018-08-10T18:45:37.483Z,21.50
2018-08-10T18:47:42.819Z,21.50
2018-08-10T18:49:46.760Z,21.50
2018-08-10T18:51:50.599Z,21.40
2018-08-10T18:53:54.460Z,21.40
2018-08-10T18:55:58.360Z,21.40
2018-08-10T18:58:02.238Z,21.30
2018-08-10T19:00:23.275Z,21.30
2018-08-10T19:02:27.115Z,21.30
2018-08-10T19:04:30.956Z,21.30
2018-08-10T19:06:34.835Z,21.20
2018-08-10T19:08:38.623Z,21.20
2018-08-10T19:10:42.547Z,21.10
2018-08-10T19:12:46.409Z,21.10
2018-08-10T19:14:50.935Z,21.00
2018-08-10T19:16:56.118Z,21.00
2018-08-10T19:19:00.012Z,21.00
2018-08-10T19:21:04.028Z,20.90
2018-08-10T19:23:07.944Z,20.90
2018-08-10T19:25:13.426Z,20.90
2018-08-10T19:27:17.183Z,20.80
2018-08-10T19:29:21.050Z,20.80
2018-08-10T19:31:25.841Z,20.80
2018-08-10T19:33:29.651Z,20.70
2018-08-10T19:35:33.516Z,20.70
2018-08-10T19:37:38.180Z,20.60
2018-08-10T19:39:42.628Z,20.60
2018-08-10T19:41:46.872Z,20.60
2018-08-10T19:43:50.798Z,20.50
2018-08-10T19:45:55.105Z,20.50
2018-08-10T19:47:59.036Z,20.50
2018-08-10T19:50:02.895Z,20.50
2018-08-10T19:52:06.836Z,20.40
2018-08-10T19:54:11.725Z,20.30
2018-08-10T19:56:16.591Z,20.30
2018-08-10T19:58:20.708Z,20.20
2018-08-10T20:00:24.587Z,20.30
2018-08-10T20:02:29.967Z,20.20
2018-08-10T20:04:34.461Z,20.20
2018-08-10T20:06:38.331Z,20.10
2018-08-10T20:08:42.302Z,20.10
2018-08-10T20:10:46.153Z,20.10
2018-08-10T20:12:50.200Z,20.10
2018-08-10T20:14:54.097Z,20.00
2018-08-10T20:16:58.136Z,19.90
2018-08-10T20:19:01.980Z,19.90
2018-08-10T20:21:05.930Z,19.80
2018-08-10T20:23:09.848Z,19.80
2018-08-10T20:25:14.362Z,19.80
2018-08-10T20:27:18.598Z,19.70
2018-08-10T20:29:22.595Z,19.70
2018-08-10T20:31:26.591Z,19.70
2018-08-10T20:33:30.459Z,19.60
2018-08-10T20:35:34.454Z,19.60
2018-08-10T20:37:39.406Z,19.60
2018-08-10T20:39:43.310Z,19.50
2018-08-10T20:41:47.299Z,19.40
2018-08-10T20:43:51.787Z,19.30
2018-08-10T20:45:55.627Z,19.20
2018-08-10T20:47:59.576Z,19.20
2018-08-10T20:50:03.496Z,19.10
2018-08-10T20:52:07.350Z,19.00
2018-08-10T20:54:11.163Z,19.00
2018-08-10T20:56:14.988Z,18.90
2018-08-10T20:58:18.824Z,18.90
2018-08-10T21:00:27.294Z,18.80
2018-08-10T21:02:31.229Z,18.80
2018-08-10T21:04:35.038Z,18.80
2018-08-10T21:06:38.857Z,18.70
2018-08-10T21:08:42.662Z,18.70
2018-08-10T21:10:47.481Z,18.70
2018-08-10T21:12:51.325Z,18.60
2018-08-10T21:14:55.157Z,18.60
2018-08-10T21:16:59.019Z,18.60
2018-08-10T21:19:02.956Z,18.50
2018-08-10T21:21:06.860Z,18.50
2018-08-10T21:23:10.805Z,18.40
2018-08-10T21:25:15.027Z,18.30
2018-08-10T21:27:18.979Z,18.30
2018-08-10T21:29:22.802Z,18.20
2018-08-10T21:31:26.604Z,18.10
2018-08-10T21:33:30.600Z,18.10
2018-08-10T21:35:34.368Z,18.00
2018-08-10T21:37:38.314Z,18.00
2018-08-10T21:39:43.508Z,18.00
2018-08-10T21:41:49.124Z,17.90
2018-08-10T21:43:57.541Z,17.90
2018-08-10T21:46:01.513Z,17.90
2018-08-10T21:48:05.340Z,17.90
2018-08-10T21:50:13.830Z,17.90
2018-08-10T21:52:17.742Z,17.90
2018-08-10T21:54:21.670Z,17.90
2018-08-10T21:56:25.533Z,17.90
2018-08-10T21:58:29.379Z,17.90
2018-08-10T22:00:45.853Z,17.90
2018-08-10T22:02:49.753Z,17.90
2018-08-10T22:04:54.024Z,17.80
2018-08-10T22:06:57.959Z,17.80
2018-08-10T22:09:01.807Z,17.70
2018-08-10T22:11:06.509Z,17.70
2018-08-10T22:13:15.681Z,17.70
2018-08-10T22:15:24.846Z,17.60
2018-08-10T22:17:35.016Z,17.60
2018-08-10T22:19:38.921Z,17.50
2018-08-10T22:21:43.949Z,17.60
2018-08-10T22:23:47.777Z,17.50
2018-08-10T22:25:51.629Z,17.50
2018-08-10T22:27:55.619Z,17.50
2018-08-10T22:29:59.418Z,17.50
2018-08-10T22:32:03.297Z,17.40
2018-08-10T22:34:08.832Z,17.40
2018-08-10T22:36:12.682Z,17.40
2018-08-10T22:38:16.526Z,17.40
2018-08-10T22:40:20.374Z,17.40
2018-08-10T22:42:24.902Z,17.40
2018-08-10T22:44:28.921Z,17.40
2018-08-10T22:46:32.969Z,17.40
2018-08-10T22:48:38.234Z,17.30
2018-08-10T22:50:42.135Z,17.30
2018-08-10T22:52:46.042Z,17.30
2018-08-10T22:54:50.190Z,17.20
2018-08-10T22:56:54.057Z,17.20
2018-08-10T22:58:57.911Z,17.20
2018-08-10T23:01:01.760Z,17.20
2018-08-10T23:03:05.815Z,17.10
2018-08-10T23:05:10.569Z,17.10
2018-08-10T23:07:14.352Z,17.10
2018-08-10T23:09:18.275Z,17.10
2018-08-10T23:11:22.411Z,17.00
2018-08-10T23:13:26.304Z,17.00
2018-08-10T23:15:30.146Z,16.90
2018-08-10T23:17:34.002Z,16.90
2018-08-10T23:19:37.905Z,16.80
2018-08-10T23:21:42.046Z,16.80
2018-08-10T23:23:45.934Z,16.70
2018-08-10T23:25:49.753Z,16.70
2018-08-10T23:27:53.636Z,16.70
2018-08-10T23:29:57.436Z,16.60
2018-08-10T23:32:01.295Z,16.50
2018-08-10T23:34:05.169Z,16.50
2018-08-10T23:36:09.185Z,16.50
2018-08-10T23:38:13.134Z,16.50
2018-08-10T23:40:25.748Z,16.40
2018-08-10T23:42:29.568Z,16.30
2018-08-10T23:44:33.435Z,16.40
2018-08-10T23:46:37.476Z,16.30
2018-08-10T23:48:41.308Z,16.30
2018-08-10T23:50:45.150Z,16.30
2018-08-10T23:52:49.067Z,16.30
2018-08-10T23:54:53.441Z,16.30
2018-08-10T23:56:57.323Z,16.30
2018-08-10T23:59:01.486Z,16.30
